Weather at Gopher STOL Airport [CLOSED]

Public forecast

Using degrees Fahrenheit for public forecast. Weather courtesy of forecast.io.

Closest aviation weather report (METAR) to Gopher STOL Airport

Closest report is Chippewa Valley Regional Airport, 13.5 nm (25.1 km) N. Retrieved 2020/10/25 14:56 UTC (39 minutes ago):

KEAU 251456Z 01005KT 10SM SCT055 OVC070 M01/M06 A3034 RMK AO2 SLP288 T10111061 53002

Closest aviation forecast (TAF) to Gopher STOL Airport

Closest forecast is Chippewa Valley Regional Airport, 13.5 nm (25.1 km) N. Retrieved 2020/10/25 12:42 UTC (3 hours ago):

TAF KEAU 251140Z 2512/2612 36004KT P6SM OVC050 FM251900 35005KT 4SM -SN BR BKN018 OVC025 TEMPO 2519/2523 2SM -SN BR OVC015 FM260100 33005KT P6SM OVC022